Terminal Aerodrome Forecast
Issued by NWS Spokane, WA

Home | Current Version | Previous Version | Text Only | Print | Product List | Glossary On
Versions: 1 2 3 4 5 6 7 8 9 10 11 12 13 14 15 16
000
FTUS46 KOTX 261513 AAB
TAFLWS
TAF AMD
KLWS 261513Z 2615/2712 00000KT 1/2SM -SN FG SCT003 OVC012
     FM261700 09003KT 1 1/2SM -SN BR BKN008 OVC015
     FM262000 10004KT 2SM -SN BR SCT008 SCT015 OVC025
     FM270100 VRB03KT 5SM -SHSN SCT008 BKN025 OVC050
     FM270300 VRB03KT P6SM SCT006 OVC025=

USA.gov is the U.S. government's official web portal to all federal, state and local government web resources and services.